Hlavní strana
METAR-TAF:

METAR-TAF

Letiště :

Umeå, Švédsko

zeměpisná šířka: 63-48N, zeměpisná délka: 020-17E, výška: 7 m

Aktuální stav počasí

Zpráva byla vytvořena před 28 minutami, v 09:20 UTC
Západoseverozápadní vítr 9 kt
Teplota 0°C
Vlhkost vzduchu 64%
Tlak 1015 hPa
Viditelnost 10 km a více

METAR: ESNU 170920Z AUTO 30009KT 9999 NCD M00/M06 Q1015 R14/09//70

Čas: 10:48 (09:48 UTC)

Předpověď počasí

Zpráva byla vytvořena před 1 hodinou a 18 minutami, v 08:30 UTC
Předpověď platná od 17 v 09 UTC do 17 v 18 UTC
Západoseverozápadní vítr 8 kt
Viditelnost 10 km a více
Žádná oblačnost pod 1500 m, nevyskytují se cumulonimby.

TAF: ESNU 170830Z 1709/1718 30008KT CAVOK

Stav a předpovědi počasí z více než 4 000 letišť (zprávy METAR a TAF).

Červené a žluté tečky na mapě představují dostupné meteorologické stanice.

Když kurzor umístíte na tečku, zobrazí se název stanice.

Pak kliknutím zobrazíte stav a předpověď počasí.

Chcete-li změnit mapu, kliknutím na zelené tlačítko se znaménkem +mapu přiblížíte, kliknutím na zelené tlačítko se znaménkem – mapu oddálíte a kliknutím na zelené šipky přejdete na sousední mapy.


METAR-TAF: